createdAt,value
2019-02-25T00:01:57.554Z,103261.67
2019-02-25T00:04:27.758Z,103253.80
2019-02-25T00:06:59.192Z,103245.62
2019-02-25T00:09:27.746Z,103243.51
2019-02-25T00:11:59.413Z,103248.64
2019-02-25T00:14:27.967Z,103246.80
2019-02-25T00:16:56.560Z,103246.73
2019-02-25T00:19:25.121Z,103246.50
2019-02-25T00:21:56.502Z,103246.96
2019-02-25T00:24:25.575Z,103254.22
2019-02-25T00:26:54.164Z,103251.02
2019-02-25T00:29:22.726Z,103261.17
2019-02-25T00:31:54.066Z,103255.12
2019-02-25T00:34:22.622Z,103259.97
2019-02-25T00:36:51.203Z,103247.77
2019-02-25T00:39:19.764Z,103240.59
2019-02-25T00:41:48.349Z,103240.47
2019-02-25T00:44:19.938Z,103243.42
2019-02-25T00:46:51.196Z,103238.88
2019-02-25T00:49:22.705Z,103241.75
2019-02-25T00:51:51.276Z,103229.08
2019-02-25T00:54:22.801Z,103229.38
2019-02-25T00:56:51.386Z,103230.92
2019-02-25T00:59:22.610Z,103232.70
2019-02-25T01:01:53.874Z,103237.04
2019-02-25T01:04:22.431Z,103236.97
2019-02-25T01:06:51.245Z,103235.24
2019-02-25T01:09:23.031Z,103231.08
2019-02-25T01:11:51.627Z,103227.38
2019-02-25T01:14:20.217Z,103231.98
2019-02-25T01:16:48.805Z,103232.52
2019-02-25T01:19:20.175Z,103233.66
2019-02-25T01:21:51.656Z,103231.67
2019-02-25T01:24:22.914Z,103225.95
2019-02-25T01:26:51.655Z,103228.07
2019-02-25T01:29:23.049Z,103222.81
2019-02-25T01:31:54.619Z,103230.32
2019-02-25T01:34:26.227Z,103237.73
2019-02-25T01:36:57.585Z,103232.93
2019-02-25T01:39:28.900Z,103235.28
2019-02-25T01:42:00.262Z,103246.84
2019-02-25T01:44:31.806Z,103241.70
2019-02-25T01:47:03.312Z,103235.63
2019-02-25T01:49:34.899Z,103239.67
2019-02-25T01:52:06.251Z,103234.01
2019-02-25T01:54:37.858Z,103234.66
2019-02-25T01:57:09.186Z,103234.76
2019-02-25T01:59:37.738Z,103234.01
2019-02-25T02:02:06.323Z,103235.29
2019-02-25T02:04:34.892Z,103232.02
2019-02-25T02:07:06.469Z,103238.34
2019-02-25T02:09:38.008Z,103237.11
2019-02-25T02:12:06.596Z,103233.73
2019-02-25T02:14:37.908Z,103227.73
2019-02-25T02:17:06.758Z,103221.12
2019-02-25T02:19:38.756Z,103220.26
2019-02-25T02:22:07.350Z,103223.20
2019-02-25T02:24:36.074Z,103217.70
2019-02-25T02:27:04.800Z,103211.11
2019-02-25T02:29:36.388Z,103212.03
2019-02-25T02:32:04.983Z,103208.78
2019-02-25T02:34:33.536Z,103199.80
2019-02-25T02:37:04.814Z,103199.56
2019-02-25T02:39:36.423Z,103200.60
2019-02-25T02:42:19.746Z,103195.01
2019-02-25T02:44:53.828Z,103193.19
2019-02-25T02:47:31.419Z,103188.72
2019-02-25T02:50:02.016Z,103188.47
2019-02-25T02:52:30.598Z,103184.66
2019-02-25T02:54:59.160Z,103175.77
2019-02-25T02:57:27.752Z,103170.09
2019-02-25T02:59:56.314Z,103173.82
2019-02-25T03:02:27.815Z,103179.69
2019-02-25T03:04:59.643Z,103183.13
2019-02-25T03:07:31.136Z,103183.22
2019-02-25T03:09:59.694Z,103189.59
2019-02-25T03:12:28.692Z,103189.59
2019-02-25T03:15:00.415Z,103193.55
2019-02-25T03:17:30.023Z,103182.30
2019-02-25T03:20:01.965Z,103187.81
2019-02-25T03:22:33.444Z,103189.91
2019-02-25T03:25:02.003Z,103194.45
2019-02-25T03:27:33.562Z,103200.23
2019-02-25T03:30:07.989Z,103204.77
2019-02-25T03:32:39.517Z,103201.48
2019-02-25T03:35:08.154Z,103205.55
2019-02-25T03:37:36.767Z,103204.73
2019-02-25T03:40:11.831Z,103202.86
2019-02-25T03:42:43.950Z,103199.55
2019-02-25T03:45:14.453Z,103197.13
2019-02-25T03:47:45.583Z,103190.08
2019-02-25T03:50:14.449Z,103193.51
2019-02-25T03:52:48.975Z,103193.63
2019-02-25T03:55:20.132Z,103191.66
2019-02-25T03:57:51.815Z,103194.33
2019-02-25T04:00:26.962Z,103177.67
2019-02-25T04:02:58.484Z,103168.05
2019-02-25T04:05:27.024Z,103167.68
2019-02-25T04:07:58.770Z,103174.58
2019-02-25T04:10:30.021Z,103180.34
2019-02-25T04:13:01.293Z,103173.71
2019-02-25T04:15:34.050Z,103186.52
2019-02-25T04:18:03.299Z,103187.39
2019-02-25T04:20:31.856Z,103191.12
2019-02-25T04:23:03.182Z,103181.06
2019-02-25T04:25:34.736Z,103186.56
2019-02-25T04:28:03.433Z,103184.09
2019-02-25T04:30:34.838Z,103178.67
2019-02-25T04:33:06.139Z,103186.88
2019-02-25T04:35:37.699Z,103184.72
2019-02-25T04:38:09.223Z,103174.98
2019-02-25T04:40:37.801Z,103173.13
2019-02-25T04:43:09.213Z,103166.53
2019-02-25T04:45:37.791Z,103162.62
2019-02-25T04:48:09.430Z,103162.91
2019-02-25T04:50:41.072Z,103156.70
2019-02-25T04:53:12.346Z,103161.80
2019-02-25T04:55:40.938Z,103172.23
2019-02-25T04:58:14.660Z,103192.92
2019-02-25T05:00:48.947Z,103200.84
2019-02-25T05:03:17.506Z,103214.69
2019-02-25T05:05:48.925Z,103220.22
2019-02-25T05:08:20.337Z,103213.91
2019-02-25T05:10:51.836Z,103215.89
2019-02-25T05:13:23.699Z,103211.55
2019-02-25T05:15:52.299Z,103210.96
2019-02-25T05:18:23.864Z,103215.62
2019-02-25T05:20:52.445Z,103212.23
2019-02-25T05:23:23.992Z,103212.52
2019-02-25T05:25:55.301Z,103209.17
2019-02-25T05:28:23.864Z,103208.47
2019-02-25T05:30:52.457Z,103207.70
2019-02-25T05:33:23.939Z,103206.14
2019-02-25T05:35:55.189Z,103202.25
2019-02-25T05:38:26.564Z,103201.89
2019-02-25T05:40:58.299Z,103201.25
2019-02-25T05:43:29.856Z,103209.71
2019-02-25T05:45:58.446Z,103203.27
2019-02-25T05:48:29.880Z,103215.20
2019-02-25T05:51:01.508Z,103212.17
2019-02-25T05:53:30.084Z,103217.52
2019-02-25T05:56:01.613Z,103212.17
2019-02-25T05:58:32.843Z,103216.02
2019-02-25T06:01:01.431Z,103212.77
2019-02-25T06:03:32.670Z,103212.77
2019-02-25T06:06:01.256Z,103222.16
2019-02-25T06:08:32.621Z,103222.98
2019-02-25T06:11:04.202Z,103222.34
2019-02-25T06:13:35.443Z,103226.64
2019-02-25T06:16:04.453Z,103226.91
2019-02-25T06:18:36.009Z,103221.05
2019-02-25T06:21:04.598Z,103233.59
2019-02-25T06:23:33.308Z,103233.42
2019-02-25T06:26:02.089Z,103229.72
2019-02-25T06:28:30.858Z,103228.25
2019-02-25T06:30:59.439Z,103222.48
2019-02-25T06:33:28.007Z,103228.66
2019-02-25T06:35:56.921Z,103229.94
2019-02-25T06:38:28.437Z,103229.94
2019-02-25T06:41:00.029Z,103232.38
2019-02-25T06:43:28.592Z,103239.78
2019-02-25T06:46:00.284Z,103241.43
2019-02-25T06:48:29.185Z,103234.48
2019-02-25T06:51:00.710Z,103240.84
2019-02-25T06:53:29.270Z,103243.00
2019-02-25T06:55:57.860Z,103243.36
2019-02-25T06:58:29.090Z,103239.05
2019-02-25T07:01:00.447Z,103249.31
2019-02-25T07:03:29.009Z,103247.24
2019-02-25T07:05:59.292Z,103250.64
2019-02-25T07:08:46.690Z,103256.78
2019-02-25T07:11:19.934Z,103250.55
2019-02-25T07:14:02.113Z,103254.51
2019-02-25T07:16:35.324Z,103256.70
2019-02-25T07:19:05.938Z,103257.13
2019-02-25T07:21:41.622Z,103261.70
2019-02-25T07:24:17.606Z,103263.62
2019-02-25T07:26:59.773Z,103261.47
2019-02-25T07:29:41.214Z,103260.14
2019-02-25T07:32:27.710Z,103257.41
2019-02-25T07:35:03.963Z,103260.34
2019-02-25T07:37:34.559Z,103262.31
2019-02-25T07:40:16.699Z,103270.17
2019-02-25T07:42:51.414Z,103269.88
2019-02-25T07:45:24.143Z,103270.90
2019-02-25T07:48:09.419Z,103267.42
2019-02-25T07:50:54.683Z,103267.47
2019-02-25T07:53:30.802Z,103272.91
2019-02-25T07:56:10.155Z,103277.47
2019-02-25T07:58:49.057Z,103284.23
2019-02-25T08:01:22.125Z,103283.23
2019-02-25T08:03:52.770Z,103275.83
2019-02-25T08:06:32.178Z,103267.37
2019-02-25T08:09:05.750Z,103270.59
2019-02-25T08:11:48.109Z,103278.39
2019-02-25T08:14:39.623Z,103272.45
2019-02-25T08:17:26.168Z,103271.75
2019-02-25T08:20:12.347Z,103269.66
2019-02-25T08:22:42.561Z,103265.74
2019-02-25T08:25:21.183Z,103264.01
2019-02-25T08:28:00.065Z,103259.96
2019-02-25T08:30:39.016Z,103254.97
2019-02-25T08:33:21.167Z,103254.52
2019-02-25T08:35:57.342Z,103254.52
2019-02-25T08:38:33.219Z,103255.66
2019-02-25T08:41:04.908Z,103252.08
2019-02-25T08:43:43.811Z,103253.87
2019-02-25T08:46:24.070Z,103253.87
2019-02-25T08:49:00.352Z,103247.48
2019-02-25T08:51:31.885Z,103247.48
2019-02-25T08:54:00.473Z,103243.59
2019-02-25T08:56:29.107Z,103243.59
2019-02-25T08:58:57.686Z,103249.73
2019-02-25T09:01:29.878Z,103249.73
2019-02-25T09:04:00.895Z,103253.16
2019-02-25T09:06:29.477Z,103249.01
2019-02-25T09:09:00.979Z,103244.45
2019-02-25T09:11:29.551Z,103244.45
2019-02-25T09:13:58.128Z,103246.81
2019-02-25T09:16:42.449Z,103248.34
2019-02-25T09:19:15.742Z,103252.80
2019-02-25T09:21:47.640Z,103262.41
2019-02-25T09:24:18.985Z,103272.25
2019-02-25T09:26:50.288Z,103272.25
2019-02-25T09:29:18.870Z,103261.70
2019-02-25T09:31:47.437Z,103263.98
2019-02-25T09:34:22.503Z,103268.91
2019-02-25T09:36:51.525Z,103264.59
2019-02-25T09:39:22.827Z,103266.92
2019-02-25T09:41:54.085Z,103260.37
2019-02-25T09:44:25.918Z,103259.58
2019-02-25T09:46:54.487Z,103262.33
2019-02-25T09:49:25.783Z,103257.38
2019-02-25T09:51:54.355Z,103251.47
2019-02-25T09:54:22.918Z,103245.45
2019-02-25T09:56:51.504Z,103248.18
2019-02-25T09:59:23.024Z,103244.33
2019-02-25T10:01:54.673Z,103244.11
2019-02-25T10:04:25.949Z,103241.98
2019-02-25T10:07:02.387Z,103238.27
2019-02-25T10:09:32.429Z,103233.25
2019-02-25T10:12:03.599Z,103226.41
2019-02-25T10:14:34.900Z,103228.19
2019-02-25T10:17:03.729Z,103219.98
2019-02-25T10:19:35.395Z,103224.29
2019-02-25T10:22:06.913Z,103220.45
2019-02-25T10:24:39.867Z,103208.30
2019-02-25T10:27:11.670Z,103201.35
2019-02-25T10:29:43.003Z,103205.23
2019-02-25T10:32:14.333Z,103208.31
2019-02-25T10:34:47.552Z,103201.39
2019-02-25T10:37:19.728Z,103205.30
2019-02-25T10:39:51.544Z,103204.44
2019-02-25T10:42:23.162Z,103204.44
2019-02-25T10:44:54.420Z,103204.88
2019-02-25T10:47:26.113Z,103194.03
2019-02-25T10:49:56.574Z,103186.23
2019-02-25T10:52:29.580Z,103181.89
2019-02-25T10:54:58.351Z,103172.78
2019-02-25T10:57:31.434Z,103170.62
2019-02-25T11:00:04.602Z,103160.61
2019-02-25T11:02:44.000Z,103161.49
2019-02-25T11:05:09.866Z,103167.97
2019-02-25T11:07:42.021Z,103170.56
2019-02-25T11:10:20.239Z,103167.95
2019-02-25T11:12:48.827Z,103164.46
2019-02-25T11:15:17.755Z,103167.94
2019-02-25T11:17:48.000Z,103169.64
2019-02-25T11:20:20.511Z,103165.27
2019-02-25T11:22:51.975Z,103165.23
2019-02-25T11:25:25.630Z,103154.26
2019-02-25T11:27:56.496Z,103165.59
2019-02-25T11:30:25.069Z,103154.61
2019-02-25T11:32:55.732Z,103158.84
2019-02-25T11:35:24.305Z,103155.80
2019-02-25T11:37:57.053Z,103153.52
2019-02-25T11:40:31.066Z,103143.95
2019-02-25T11:43:02.553Z,103135.33
2019-02-25T11:45:36.254Z,103134.83
2019-02-25T11:48:07.897Z,103124.37
2019-02-25T11:50:39.186Z,103126.87
2019-02-25T11:53:10.779Z,103121.13
2019-02-25T11:55:42.434Z,103121.52
2019-02-25T11:58:14.738Z,103115.75
2019-02-25T12:00:46.394Z,103113.97
2019-02-25T12:03:18.385Z,103110.05
2019-02-25T12:05:46.969Z,103108.23
2019-02-25T12:08:18.465Z,103094.91
2019-02-25T12:10:47.030Z,103091.37
2019-02-25T12:13:18.408Z,103088.62
2019-02-25T12:15:46.968Z,103081.04
2019-02-25T12:18:15.768Z,103078.33
2019-02-25T12:20:44.334Z,103072.70
2019-02-25T12:23:19.294Z,103062.61
2019-02-25T12:25:47.882Z,103068.11
2019-02-25T12:28:19.178Z,103056.70
2019-02-25T12:30:47.813Z,103052.91
2019-02-25T12:33:19.334Z,103048.09
2019-02-25T12:35:47.893Z,103044.10
2019-02-25T12:38:19.199Z,103036.22
2019-02-25T12:40:50.773Z,103034.70
2019-02-25T12:43:22.125Z,103027.69
2019-02-25T12:45:50.698Z,103021.91
2019-02-25T12:48:22.829Z,103028.58
2019-02-25T12:50:54.579Z,103024.16
2019-02-25T12:53:30.990Z,103014.59
2019-02-25T12:56:00.131Z,103017.03
2019-02-25T12:58:28.724Z,103011.50
2019-02-25T13:00:57.604Z,103004.36
2019-02-25T13:03:29.155Z,103002.27
2019-02-25T13:06:01.647Z,103005.74
2019-02-25T13:08:33.369Z,102992.58
2019-02-25T13:11:01.937Z,102990.86
2019-02-25T13:13:30.518Z,102990.90
2019-02-25T13:15:59.085Z,102988.20
2019-02-25T13:18:28.345Z,102985.89
2019-02-25T13:20:59.582Z,102991.88
2019-02-25T13:23:28.169Z,102986.68
2019-02-25T13:25:56.771Z,102976.37
2019-02-25T13:28:26.267Z,102982.09
2019-02-25T13:30:55.731Z,102983.73
2019-02-25T13:33:24.702Z,102985.86
2019-02-25T13:35:53.440Z,102983.95
2019-02-25T13:38:22.039Z,102977.25
2019-02-25T13:40:50.609Z,102978.40
2019-02-25T13:43:19.194Z,102985.63
2019-02-25T13:45:47.762Z,102992.13
2019-02-25T13:48:19.024Z,102987.27
2019-02-25T13:50:47.666Z,102993.18
2019-02-25T13:53:16.254Z,102988.66
2019-02-25T13:55:46.904Z,102988.66
2019-02-25T13:58:15.496Z,102987.34
2019-02-25T14:00:45.709Z,102990.41
2019-02-25T14:03:17.569Z,102990.23
2019-02-25T14:05:46.132Z,102995.72
2019-02-25T14:08:14.752Z,102989.30
2019-02-25T14:10:46.665Z,102982.27
2019-02-25T14:13:18.265Z,102980.52
2019-02-25T14:15:49.742Z,102975.80
2019-02-25T14:18:18.388Z,102984.88
2019-02-25T14:20:49.636Z,102976.25
2019-02-25T14:23:18.430Z,102974.61
2019-02-25T14:25:51.231Z,102984.10
2019-02-25T14:28:22.620Z,102975.16
2019-02-25T14:30:51.672Z,102963.80
2019-02-25T14:33:23.725Z,102965.19
2019-02-25T14:35:55.608Z,102954.72
2019-02-25T14:38:28.164Z,102956.15
2019-02-25T14:41:01.881Z,102942.16
2019-02-25T14:43:31.506Z,102940.16
2019-02-25T14:46:04.844Z,102938.89
2019-02-25T14:48:36.052Z,102943.83
2019-02-25T14:51:08.816Z,102931.69
2019-02-25T14:53:41.746Z,102941.28
2019-02-25T14:56:10.511Z,102932.58
2019-02-25T14:58:40.578Z,102927.28
2019-02-25T15:01:09.530Z,102929.07
2019-02-25T15:03:41.293Z,102929.11
2019-02-25T15:06:14.247Z,102935.13
2019-02-25T15:08:45.934Z,102934.78
2019-02-25T15:11:18.042Z,102936.58
2019-02-25T15:13:46.686Z,102942.70
2019-02-25T15:16:18.575Z,102942.26
2019-02-25T15:18:47.800Z,102941.32
2019-02-25T15:21:19.755Z,102933.55
2019-02-25T15:23:51.301Z,102928.40
2019-02-25T15:26:23.613Z,102920.63
2019-02-25T15:28:56.031Z,102932.73
2019-02-25T15:31:23.702Z,102922.83
2019-02-25T15:33:52.372Z,102932.02
2019-02-25T15:36:24.745Z,102923.73
2019-02-25T15:38:53.908Z,102921.08
2019-02-25T15:41:25.502Z,102923.28
2019-02-25T15:43:54.138Z,102919.39
2019-02-25T15:46:26.493Z,102917.71
2019-02-25T15:48:57.802Z,102922.15
2019-02-25T15:51:30.405Z,102917.20
2019-02-25T15:54:02.574Z,102923.70
2019-02-25T15:56:34.402Z,102927.75
2019-02-25T15:59:03.028Z,102931.80
2019-02-25T16:01:34.661Z,102932.69
2019-02-25T16:04:07.071Z,102930.55
2019-02-25T16:06:37.715Z,102934.17
2019-02-25T16:09:10.526Z,102929.91
2019-02-25T16:11:39.748Z,102930.76
2019-02-25T16:14:12.205Z,102930.16
2019-02-25T16:16:40.801Z,102931.20
2019-02-25T16:19:10.331Z,102923.50
2019-02-25T16:21:41.011Z,102917.97
2019-02-25T16:24:11.793Z,102921.02
2019-02-25T16:26:40.677Z,102919.78
2019-02-25T16:29:11.651Z,102930.30
2019-02-25T16:31:40.542Z,102925.62
2019-02-25T16:34:14.196Z,102921.34
2019-02-25T16:36:42.389Z,102922.80
2019-02-25T16:39:11.317Z,102919.82
2019-02-25T16:41:41.750Z,102917.67
2019-02-25T16:44:10.401Z,102906.48
2019-02-25T16:46:41.215Z,102908.70
2019-02-25T16:49:09.389Z,102903.88
2019-02-25T16:51:38.361Z,102914.77
2019-02-25T16:54:11.008Z,102920.41
2019-02-25T16:56:37.399Z,102920.95
2019-02-25T16:59:10.914Z,102926.56
2019-02-25T17:01:37.666Z,102925.28
2019-02-25T17:04:06.780Z,102923.19
2019-02-25T17:06:36.974Z,102912.44
2019-02-25T17:09:06.741Z,102919.39
2019-02-25T17:11:37.410Z,102919.84
2019-02-25T17:14:06.043Z,102915.50
2019-02-25T17:16:35.679Z,102920.78
2019-02-25T17:19:05.239Z,102924.27
2019-02-25T17:21:33.970Z,102934.70
2019-02-25T17:24:03.669Z,102936.01
2019-02-25T17:26:33.662Z,102937.73
2019-02-25T17:29:02.322Z,102938.59
2019-02-25T17:31:34.529Z,102939.48
2019-02-25T17:34:04.161Z,102942.52
2019-02-25T17:36:36.373Z,102938.64
2019-02-25T17:39:08.674Z,102931.70
2019-02-25T17:41:39.844Z,102937.78
2019-02-25T17:44:09.139Z,102935.22
2019-02-25T17:46:41.293Z,102929.58
2019-02-25T17:49:17.331Z,102928.27
2019-02-25T17:51:46.456Z,102928.69
2019-02-25T17:54:16.923Z,102930.00
2019-02-25T17:56:49.757Z,102924.80
2019-02-25T17:59:18.498Z,102927.43
2019-02-25T18:01:48.456Z,102938.25
2019-02-25T18:04:20.116Z,102936.53
2019-02-25T18:06:48.701Z,102944.33
2019-02-25T18:09:20.969Z,102944.33
2019-02-25T18:11:50.438Z,102942.59
2019-02-25T18:14:19.890Z,102934.80
2019-02-25T18:16:49.591Z,102939.13
2019-02-25T18:19:20.890Z,102936.52
2019-02-25T18:21:49.250Z,102936.95
2019-02-25T18:24:18.226Z,102929.58
2019-02-25T18:26:47.468Z,102933.48
2019-02-25T18:29:22.673Z,102926.13
2019-02-25T18:31:52.193Z,102922.23
2019-02-25T18:34:20.970Z,102920.95
2019-02-25T18:36:51.620Z,102923.53
2019-02-25T18:39:20.959Z,102925.71
2019-02-25T18:41:50.953Z,102924.41
2019-02-25T18:44:27.317Z,102931.79
2019-02-25T18:46:56.036Z,102927.89
2019-02-25T18:49:26.627Z,102930.90
2019-02-25T18:51:57.637Z,102933.09
2019-02-25T18:54:29.650Z,102926.14
2019-02-25T18:56:59.097Z,102916.20
2019-02-25T18:59:29.477Z,102916.62
2019-02-25T19:02:00.934Z,102918.78
2019-02-25T19:04:29.652Z,102913.14
2019-02-25T19:06:59.755Z,102917.50
2019-02-25T19:09:31.529Z,102914.88
2019-02-25T19:12:00.125Z,102925.27
2019-02-25T19:14:29.374Z,102926.95
2019-02-25T19:16:59.711Z,102915.66
2019-02-25T19:19:31.433Z,102918.69
2019-02-25T19:21:59.878Z,102921.29
2019-02-25T19:24:33.247Z,102915.64
2019-02-25T19:27:06.427Z,102917.36
2019-02-25T19:29:34.711Z,102916.47
2019-02-25T19:32:06.162Z,102914.35
2019-02-25T19:34:34.892Z,102912.61
2019-02-25T19:37:05.189Z,102909.10
2019-02-25T19:39:39.090Z,102911.30
2019-02-25T19:42:15.090Z,102910.42
2019-02-25T19:44:42.428Z,102901.37
2019-02-25T19:47:11.938Z,102900.94
2019-02-25T19:49:45.716Z,102901.77
2019-02-25T19:52:16.661Z,102904.41
2019-02-25T19:54:46.412Z,102903.09
2019-02-25T19:57:16.613Z,102903.11
2019-02-25T19:59:50.697Z,102903.09
2019-02-25T20:02:19.114Z,102901.37
2019-02-25T20:04:50.199Z,102911.74
2019-02-25T20:07:20.528Z,102912.17
2019-02-25T20:09:52.482Z,102904.36
2019-02-25T20:12:21.135Z,102903.50
2019-02-25T20:14:52.905Z,102908.24
2019-02-25T20:17:25.946Z,102904.31
2019-02-25T20:19:52.584Z,102906.05
2019-02-25T20:22:21.209Z,102915.52
2019-02-25T20:24:50.633Z,102913.76
2019-02-25T20:27:20.298Z,102909.41
2019-02-25T20:29:49.581Z,102911.53
2019-02-25T20:32:19.026Z,102907.19
2019-02-25T20:34:50.621Z,102896.36
2019-02-25T20:37:22.747Z,102896.74
2019-02-25T20:39:50.134Z,102898.42
2019-02-25T20:42:22.389Z,102900.15
2019-02-25T20:44:55.336Z,102898.42
2019-02-25T20:47:25.751Z,102897.97
2019-02-25T20:49:56.474Z,102894.50
2019-02-25T20:52:24.628Z,102882.84
2019-02-25T20:54:53.622Z,102879.27
2019-02-25T20:57:22.192Z,102881.80
2019-02-25T20:59:55.426Z,102888.69
2019-02-25T21:02:25.656Z,102888.28
2019-02-25T21:04:54.567Z,102879.58
2019-02-25T21:07:24.732Z,102873.47
2019-02-25T21:09:59.132Z,102876.92
2019-02-25T21:12:28.209Z,102872.20
2019-02-25T21:14:56.839Z,102876.92
2019-02-25T21:17:28.570Z,102879.45
2019-02-25T21:20:00.240Z,102872.07
2019-02-25T21:22:32.213Z,102863.84
2019-02-25T21:25:04.892Z,102848.73
2019-02-25T21:27:37.490Z,102850.38
2019-02-25T21:30:12.844Z,102847.28
2019-02-25T21:32:43.235Z,102849.41
2019-02-25T21:35:14.149Z,102851.95
2019-02-25T21:37:47.868Z,102841.95
2019-02-25T21:40:27.806Z,102833.36
2019-02-25T21:42:59.362Z,102826.33
2019-02-25T21:45:33.848Z,102826.81
2019-02-25T21:48:14.778Z,102832.03
2019-02-25T21:50:43.368Z,102834.01
2019-02-25T21:53:16.079Z,102834.01
2019-02-25T21:55:48.023Z,102830.00
2019-02-25T21:58:18.926Z,102840.05
2019-02-25T22:00:47.311Z,102842.20
2019-02-25T22:03:19.601Z,102835.14
2019-02-25T22:05:53.948Z,102845.38
2019-02-25T22:08:24.357Z,102845.42
2019-02-25T22:10:58.246Z,102845.76
2019-02-25T22:13:29.482Z,102841.69
2019-02-25T22:16:01.821Z,102841.73
2019-02-25T22:18:36.346Z,102841.73
2019-02-25T22:21:07.224Z,102841.73
2019-02-25T22:23:38.305Z,102846.41
2019-02-25T22:26:06.907Z,102847.71
2019-02-25T22:28:37.588Z,102847.71
2019-02-25T22:31:10.820Z,102847.22
2019-02-25T22:33:39.152Z,102851.64
2019-02-25T22:36:10.670Z,102851.64
2019-02-25T22:38:39.258Z,102848.56
2019-02-25T22:41:07.852Z,102848.56
2019-02-25T22:43:41.342Z,102854.48
2019-02-25T22:46:11.647Z,102855.35
2019-02-25T22:48:44.957Z,102845.97
2019-02-25T22:51:16.204Z,102840.86
2019-02-25T22:53:47.699Z,102842.05
2019-02-25T22:56:21.474Z,102841.95
2019-02-25T22:58:49.795Z,102843.66
2019-02-25T23:01:19.003Z,102851.42
2019-02-25T23:03:49.792Z,102852.33
2019-02-25T23:06:23.083Z,102839.36
2019-02-25T23:08:55.656Z,102842.05
2019-02-25T23:11:28.702Z,102842.05
2019-02-25T23:14:07.762Z,102835.16
2019-02-25T23:17:17.947Z,102837.24
2019-02-25T23:23:21.209Z,102830.30
2019-02-25T23:25:53.760Z,102833.80
2019-02-25T23:28:22.818Z,102828.59
2019-02-25T23:30:58.385Z,102802.80
2019-02-25T23:33:26.975Z,102804.98
2019-02-25T23:35:58.317Z,102804.98
2019-02-25T23:38:29.773Z,102788.05
2019-02-25T23:41:01.256Z,102791.11
2019-02-25T23:43:28.635Z,102791.11
2019-02-25T23:46:00.145Z,102793.59
2019-02-25T23:48:33.724Z,102797.88
2019-02-25T23:51:05.676Z,102784.96
2019-02-25T23:53:37.466Z,102798.33
2019-02-25T23:56:06.068Z,102805.59
2019-02-25T23:58:40.341Z,102806.83
